sensor_id;sensor_type;location;lat;lon;timestamp;pressure;altitude;pressure_sealevel;temperature;humidity
61814;BME280;57055;-35.296;149.168;2023-04-01T00:01:13;95072.02;;;13.05;53.24
61814;BME280;57055;-35.296;149.168;2023-04-01T00:03:53;95074.25;;;12.89;53.00
61814;BME280;57055;-35.296;149.168;2023-04-01T00:06:22;95073.52;;;13.08;52.85
61814;BME280;57055;-35.296;149.168;2023-04-01T00:08:51;95068.77;;;13.42;52.44
61814;BME280;57055;-35.296;149.168;2023-04-01T00:11:19;95069.97;;;13.25;51.98
61814;BME280;57055;-35.296;149.168;2023-04-01T00:13:48;95069.32;;;13.17;51.87
61814;BME280;57055;-35.296;149.168;2023-04-01T00:16:17;95064.33;;;13.59;51.25
61814;BME280;57055;-35.296;149.168;2023-04-01T00:18:46;95062.27;;;13.77;51.22
61814;BME280;57055;-35.296;149.168;2023-04-01T00:21:16;95058.66;;;13.73;49.56
61814;BME280;57055;-35.296;149.168;2023-04-01T00:23:45;95057.48;;;14.00;48.58
61814;BME280;57055;-35.296;149.168;2023-04-01T00:26:14;95054.52;;;13.97;48.99
61814;BME280;57055;-35.296;149.168;2023-04-01T00:28:42;95052.42;;;14.02;47.71
61814;BME280;57055;-35.296;149.168;2023-04-01T00:31:12;95049.69;;;14.14;47.89
61814;BME280;57055;-35.296;149.168;2023-04-01T00:33:40;95045.78;;;14.24;47.86
61814;BME280;57055;-35.296;149.168;2023-04-01T00:36:11;95046.94;;;13.95;49.26
61814;BME280;57055;-35.296;149.168;2023-04-01T00:38:42;95050.42;;;14.04;49.11
61814;BME280;57055;-35.296;149.168;2023-04-01T00:41:13;95053.29;;;13.91;47.79
61814;BME280;57055;-35.296;149.168;2023-04-01T00:43:44;95048.91;;;13.99;47.44
61814;BME280;57055;-35.296;149.168;2023-04-01T00:46:13;95049.86;;;14.04;47.79
61814;BME280;57055;-35.296;149.168;2023-04-01T00:48:45;95048.54;;;14.35;47.90
61814;BME280;57055;-35.296;149.168;2023-04-01T00:51:19;95048.66;;;14.42;47.24
61814;BME280;57055;-35.296;149.168;2023-04-01T00:53:50;95047.23;;;14.47;46.48
61814;BME280;57055;-35.296;149.168;2023-04-01T00:56:24;95045.42;;;14.63;46.03
61814;BME280;57055;-35.296;149.168;2023-04-01T00:58:58;95044.77;;;14.86;45.28
61814;BME280;57055;-35.296;149.168;2023-04-01T01:01:30;95041.73;;;14.58;45.02
61814;BME280;57055;-35.296;149.168;2023-04-01T01:04:00;95039.69;;;14.75;45.26
61814;BME280;57055;-35.296;149.168;2023-04-01T01:06:39;95037.67;;;14.79;45.06
61814;BME280;57055;-35.296;149.168;2023-04-01T01:09:24;95034.92;;;14.74;44.11
61814;BME280;57055;-35.296;149.168;2023-04-01T01:12:00;95038.21;;;15.09;43.98
61814;BME280;57055;-35.296;149.168;2023-04-01T01:14:41;95037.93;;;14.70;43.96
61814;BME280;57055;-35.296;149.168;2023-04-01T01:17:19;95038.09;;;14.96;43.57
61814;BME280;57055;-35.296;149.168;2023-04-01T01:20:35;95032.90;;;15.02;43.71
61814;BME280;57055;-35.296;149.168;2023-04-01T01:23:31;95033.24;;;15.05;43.83
61814;BME280;57055;-35.296;149.168;2023-04-01T01:26:23;95029.76;;;15.26;42.31
61814;BME280;57055;-35.296;149.168;2023-04-01T01:29:04;95029.09;;;15.23;42.65
61814;BME280;57055;-35.296;149.168;2023-04-01T01:31:47;95023.24;;;15.23;41.98
61814;BME280;57055;-35.296;149.168;2023-04-01T01:34:22;95019.55;;;15.49;41.99
61814;BME280;57055;-35.296;149.168;2023-04-01T01:36:57;95023.62;;;15.88;42.76
61814;BME280;57055;-35.296;149.168;2023-04-01T01:39:30;95023.41;;;16.29;41.46
61814;BME280;57055;-35.296;149.168;2023-04-01T01:42:03;95017.75;;;16.38;43.88
61814;BME280;57055;-35.296;149.168;2023-04-01T01:44:34;95019.82;;;16.00;41.72
61814;BME280;57055;-35.296;149.168;2023-04-01T01:47:04;95015.96;;;16.10;42.22
61814;BME280;57055;-35.296;149.168;2023-04-01T01:49:35;95014.99;;;15.84;42.23
61814;BME280;57055;-35.296;149.168;2023-04-01T01:52:05;95014.13;;;15.72;42.29
61814;BME280;57055;-35.296;149.168;2023-04-01T01:54:33;95007.81;;;15.71;42.34
61814;BME280;57055;-35.296;149.168;2023-04-01T01:57:06;95002.99;;;15.75;41.77
61814;BME280;57055;-35.296;149.168;2023-04-01T01:59:37;95001.68;;;15.66;41.71
61814;BME280;57055;-35.296;149.168;2023-04-01T02:02:07;95001.98;;;15.34;41.59
61814;BME280;57055;-35.296;149.168;2023-04-01T02:04:40;94997.73;;;15.83;41.46
61814;BME280;57055;-35.296;149.168;2023-04-01T02:07:14;95002.45;;;15.57;42.05
61814;BME280;57055;-35.296;149.168;2023-04-01T02:09:45;95000.59;;;15.59;41.73
61814;BME280;57055;-35.296;149.168;2023-04-01T02:12:15;94998.69;;;15.18;41.61
61814;BME280;57055;-35.296;149.168;2023-04-01T02:14:49;94999.14;;;15.16;42.11
61814;BME280;57055;-35.296;149.168;2023-04-01T02:17:22;94997.70;;;15.11;42.18
61814;BME280;57055;-35.296;149.168;2023-04-01T02:19:53;95003.48;;;15.15;42.77
61814;BME280;57055;-35.296;149.168;2023-04-01T02:22:26;95000.66;;;15.12;42.44
61814;BME280;57055;-35.296;149.168;2023-04-01T02:25:00;94995.15;;;15.32;42.71
61814;BME280;57055;-35.296;149.168;2023-04-01T02:27:31;94997.08;;;15.07;43.32
61814;BME280;57055;-35.296;149.168;2023-04-01T02:30:01;94996.82;;;15.05;42.66
61814;BME280;57055;-35.296;149.168;2023-04-01T02:32:32;94992.33;;;15.52;42.70
61814;BME280;57055;-35.296;149.168;2023-04-01T02:35:02;94993.06;;;15.26;42.70
61814;BME280;57055;-35.296;149.168;2023-04-01T02:37:32;94990.41;;;15.32;43.03
61814;BME280;57055;-35.296;149.168;2023-04-01T02:40:02;94985.66;;;15.02;43.06
61814;BME280;57055;-35.296;149.168;2023-04-01T02:42:31;94985.07;;;15.07;43.18
61814;BME280;57055;-35.296;149.168;2023-04-01T02:45:00;94985.03;;;15.10;43.35
61814;BME280;57055;-35.296;149.168;2023-04-01T02:47:29;94985.53;;;15.04;44.23
61814;BME280;57055;-35.296;149.168;2023-04-01T02:49:58;94982.82;;;15.15;43.96
61814;BME280;57055;-35.296;149.168;2023-04-01T02:52:28;94979.77;;;15.28;44.06
61814;BME280;57055;-35.296;149.168;2023-04-01T02:54:58;94980.92;;;15.52;44.53
61814;BME280;57055;-35.296;149.168;2023-04-01T02:57:27;94980.45;;;15.38;44.57
61814;BME280;57055;-35.296;149.168;2023-04-01T02:59:56;94969.24;;;15.62;43.31
61814;BME280;57055;-35.296;149.168;2023-04-01T03:02:24;94966.35;;;15.40;43.32
61814;BME280;57055;-35.296;149.168;2023-04-01T03:04:53;94967.05;;;15.44;43.70
61814;BME280;57055;-35.296;149.168;2023-04-01T03:07:22;94971.08;;;15.42;43.70
61814;BME280;57055;-35.296;149.168;2023-04-01T03:09:51;94971.17;;;15.66;43.97
61814;BME280;57055;-35.296;149.168;2023-04-01T03:12:19;94970.74;;;15.41;44.55
61814;BME280;57055;-35.296;149.168;2023-04-01T03:14:48;94972.67;;;15.52;44.37
61814;BME280;57055;-35.296;149.168;2023-04-01T03:17:17;94972.30;;;15.59;44.13
61814;BME280;57055;-35.296;149.168;2023-04-01T03:19:46;94967.14;;;15.65;43.98
61814;BME280;57055;-35.296;149.168;2023-04-01T03:22:15;94965.97;;;15.61;43.17
61814;BME280;57055;-35.296;149.168;2023-04-01T03:24:44;94964.85;;;15.41;42.99
61814;BME280;57055;-35.296;149.168;2023-04-01T03:27:13;94967.23;;;15.76;43.42
61814;BME280;57055;-35.296;149.168;2023-04-01T03:29:42;94971.47;;;15.91;44.26
61814;BME280;57055;-35.296;149.168;2023-04-01T03:32:11;94967.53;;;15.83;42.67
61814;BME280;57055;-35.296;149.168;2023-04-01T03:34:39;94964.01;;;15.87;42.57
61814;BME280;57055;-35.296;149.168;2023-04-01T03:37:14;94959.46;;;15.83;41.86
61814;BME280;57055;-35.296;149.168;2023-04-01T03:39:42;94959.49;;;15.73;42.44
61814;BME280;57055;-35.296;149.168;2023-04-01T03:42:11;94953.84;;;15.91;42.73
61814;BME280;57055;-35.296;149.168;2023-04-01T03:44:40;94964.84;;;16.15;42.64
61814;BME280;57055;-35.296;149.168;2023-04-01T03:47:09;94960.55;;;16.16;41.36
61814;BME280;57055;-35.296;149.168;2023-04-01T03:49:38;94966.20;;;16.23;41.39
61814;BME280;57055;-35.296;149.168;2023-04-01T03:52:10;94964.38;;;16.27;41.45
61814;BME280;57055;-35.296;149.168;2023-04-01T03:54:39;94964.64;;;16.27;41.60
61814;BME280;57055;-35.296;149.168;2023-04-01T03:57:08;94963.63;;;16.31;41.12
61814;BME280;57055;-35.296;149.168;2023-04-01T03:59:37;94959.49;;;16.04;41.29
61814;BME280;57055;-35.296;149.168;2023-04-01T04:02:06;94956.14;;;16.02;41.44
61814;BME280;57055;-35.296;149.168;2023-04-01T04:04:35;94957.13;;;16.10;42.22
61814;BME280;57055;-35.296;149.168;2023-04-01T04:07:04;94961.87;;;15.94;42.45
61814;BME280;57055;-35.296;149.168;2023-04-01T04:09:33;94961.01;;;16.22;42.48
61814;BME280;57055;-35.296;149.168;2023-04-01T04:12:02;94960.62;;;16.23;42.29
61814;BME280;57055;-35.296;149.168;2023-04-01T04:14:31;94959.87;;;15.91;41.94
61814;BME280;57055;-35.296;149.168;2023-04-01T04:17:01;94960.57;;;16.07;41.60
61814;BME280;57055;-35.296;149.168;2023-04-01T04:19:33;94960.88;;;15.99;41.31
61814;BME280;57055;-35.296;149.168;2023-04-01T04:22:02;94959.68;;;16.05;41.60
61814;BME280;57055;-35.296;149.168;2023-04-01T04:24:31;94963.79;;;16.29;41.83
61814;BME280;57055;-35.296;149.168;2023-04-01T04:27:00;94965.05;;;16.25;41.59
61814;BME280;57055;-35.296;149.168;2023-04-01T04:29:29;94965.32;;;16.30;41.56
61814;BME280;57055;-35.296;149.168;2023-04-01T04:31:58;94969.51;;;16.80;40.20
61814;BME280;57055;-35.296;149.168;2023-04-01T04:34:26;94967.18;;;16.66;40.10
61814;BME280;57055;-35.296;149.168;2023-04-01T04:36:55;94966.93;;;16.25;39.53
61814;BME280;57055;-35.296;149.168;2023-04-01T04:39:23;94964.94;;;16.14;39.77
61814;BME280;57055;-35.296;149.168;2023-04-01T04:41:52;94964.97;;;16.04;40.72
61814;BME280;57055;-35.296;149.168;2023-04-01T04:44:21;94961.27;;;16.26;40.33
61814;BME280;57055;-35.296;149.168;2023-04-01T04:46:50;94959.08;;;16.24;40.33
61814;BME280;57055;-35.296;149.168;2023-04-01T04:49:19;94957.35;;;16.38;40.80
61814;BME280;57055;-35.296;149.168;2023-04-01T04:51:47;94961.96;;;16.12;41.04
61814;BME280;57055;-35.296;149.168;2023-04-01T04:54:16;94962.82;;;15.97;41.57
61814;BME280;57055;-35.296;149.168;2023-04-01T04:56:45;94959.85;;;15.89;41.48
61814;BME280;57055;-35.296;149.168;2023-04-01T04:59:14;94960.50;;;16.10;40.44
61814;BME280;57055;-35.296;149.168;2023-04-01T05:01:42;94960.42;;;15.97;39.62
61814;BME280;57055;-35.296;149.168;2023-04-01T05:04:11;94954.87;;;15.90;39.50
61814;BME280;57055;-35.296;149.168;2023-04-01T05:06:39;94956.93;;;15.85;39.63
61814;BME280;57055;-35.296;149.168;2023-04-01T05:09:08;94955.00;;;15.87;40.34
61814;BME280;57055;-35.296;149.168;2023-04-01T05:11:37;94955.16;;;15.79;40.70
61814;BME280;57055;-35.296;149.168;2023-04-01T05:14:05;94950.46;;;15.81;40.30
61814;BME280;57055;-35.296;149.168;2023-04-01T05:16:34;94949.58;;;15.81;40.48
61814;BME280;57055;-35.296;149.168;2023-04-01T05:19:02;94947.44;;;15.93;40.01
61814;BME280;57055;-35.296;149.168;2023-04-01T05:21:31;94944.05;;;15.87;39.20
61814;BME280;57055;-35.296;149.168;2023-04-01T05:24:00;94944.88;;;15.69;39.42
61814;BME280;57055;-35.296;149.168;2023-04-01T05:26:29;94944.75;;;15.81;38.40
61814;BME280;57055;-35.296;149.168;2023-04-01T05:29:00;94946.00;;;15.72;39.71
61814;BME280;57055;-35.296;149.168;2023-04-01T05:31:30;94946.93;;;16.11;39.47
61814;BME280;57055;-35.296;149.168;2023-04-01T05:33:58;94949.93;;;16.17;39.93
61814;BME280;57055;-35.296;149.168;2023-04-01T05:36:27;94947.91;;;16.13;38.72
61814;BME280;57055;-35.296;149.168;2023-04-01T05:38:56;94949.05;;;15.91;38.65
61814;BME280;57055;-35.296;149.168;2023-04-01T05:41:25;94951.00;;;15.83;38.65
61814;BME280;57055;-35.296;149.168;2023-04-01T05:43:54;94949.55;;;15.87;39.46
61814;BME280;57055;-35.296;149.168;2023-04-01T05:46:23;94952.07;;;15.96;39.50
61814;BME280;57055;-35.296;149.168;2023-04-01T05:48:52;94947.34;;;16.06;40.44
61814;BME280;57055;-35.296;149.168;2023-04-01T05:51:21;94948.90;;;15.89;39.86
61814;BME280;57055;-35.296;149.168;2023-04-01T05:53:49;94949.36;;;15.95;40.19
61814;BME280;57055;-35.296;149.168;2023-04-01T05:56:18;94949.66;;;16.03;39.55
61814;BME280;57055;-35.296;149.168;2023-04-01T05:58:51;94950.28;;;16.10;39.27
61814;BME280;57055;-35.296;149.168;2023-04-01T06:01:21;94954.33;;;16.21;38.95
61814;BME280;57055;-35.296;149.168;2023-04-01T06:03:51;94958.45;;;16.17;39.35
61814;BME280;57055;-35.296;149.168;2023-04-01T06:06:24;94956.25;;;16.29;40.12
61814;BME280;57055;-35.296;149.168;2023-04-01T06:08:55;94955.49;;;16.21;40.46
61814;BME280;57055;-35.296;149.168;2023-04-01T06:11:31;94957.45;;;16.03;40.76
61814;BME280;57055;-35.296;149.168;2023-04-01T06:14:11;94957.96;;;15.97;41.01
61814;BME280;57055;-35.296;149.168;2023-04-01T06:17:00;94957.92;;;15.90;41.49
61814;BME280;57055;-35.296;149.168;2023-04-01T06:19:40;94958.43;;;15.61;41.82
61814;BME280;57055;-35.296;149.168;2023-04-01T06:24:34;94959.45;;;16.10;42.33
61814;BME280;57055;-35.296;149.168;2023-04-01T06:27:16;94962.99;;;15.73;42.26
61814;BME280;57055;-35.296;149.168;2023-04-01T06:30:10;94964.45;;;15.57;42.34
61814;BME280;57055;-35.296;149.168;2023-04-01T06:32:58;94968.24;;;15.50;42.25
61814;BME280;57055;-35.296;149.168;2023-04-01T06:35:40;94971.96;;;15.40;42.24
61814;BME280;57055;-35.296;149.168;2023-04-01T06:38:30;94970.06;;;15.60;41.96
61814;BME280;57055;-35.296;149.168;2023-04-01T06:42:23;94970.98;;;15.52;42.30
61814;BME280;57055;-35.296;149.168;2023-04-01T06:45:03;94972.69;;;15.31;42.32
61814;BME280;57055;-35.296;149.168;2023-04-01T06:47:44;94974.44;;;15.26;42.45
61814;BME280;57055;-35.296;149.168;2023-04-01T06:50:24;94980.11;;;15.48;42.23
61814;BME280;57055;-35.296;149.168;2023-04-01T06:53:01;94983.63;;;15.25;42.36
61814;BME280;57055;-35.296;149.168;2023-04-01T06:55:38;94985.71;;;15.43;42.33
61814;BME280;57055;-35.296;149.168;2023-04-01T06:58:18;94989.44;;;15.15;42.52
61814;BME280;57055;-35.296;149.168;2023-04-01T07:00:50;94992.78;;;15.64;42.47
61814;BME280;57055;-35.296;149.168;2023-04-01T07:03:26;94993.82;;;15.33;42.28
61814;BME280;57055;-35.296;149.168;2023-04-01T07:06:01;94997.78;;;15.27;41.90
61814;BME280;57055;-35.296;149.168;2023-04-01T07:08:34;95002.76;;;15.23;42.04
61814;BME280;57055;-35.296;149.168;2023-04-01T07:11:06;95007.07;;;15.00;42.15
61814;BME280;57055;-35.296;149.168;2023-04-01T07:13:42;95005.85;;;14.95;42.57
61814;BME280;57055;-35.296;149.168;2023-04-01T07:16:17;95009.13;;;15.14;42.12
61814;BME280;57055;-35.296;149.168;2023-04-01T07:18:52;95012.53;;;14.87;42.34
61814;BME280;57055;-35.296;149.168;2023-04-01T07:21:29;95014.39;;;14.77;42.44
61814;BME280;57055;-35.296;149.168;2023-04-01T07:24:04;95020.86;;;15.22;42.21
61814;BME280;57055;-35.296;149.168;2023-04-01T07:26:34;95025.71;;;14.71;42.28
61814;BME280;57055;-35.296;149.168;2023-04-01T07:29:05;95028.72;;;14.91;42.42
61814;BME280;57055;-35.296;149.168;2023-04-01T07:31:48;95032.27;;;15.17;42.42
61814;BME280;57055;-35.296;149.168;2023-04-01T07:34:23;95036.67;;;14.67;42.50
61814;BME280;57055;-35.296;149.168;2023-04-01T07:36:57;95037.77;;;14.86;43.17
61814;BME280;57055;-35.296;149.168;2023-04-01T07:39:34;95040.56;;;15.08;43.28
61814;BME280;57055;-35.296;149.168;2023-04-01T07:42:13;95045.12;;;14.75;43.22
61814;BME280;57055;-35.296;149.168;2023-04-01T07:44:54;95042.57;;;14.94;44.07
61814;BME280;57055;-35.296;149.168;2023-04-01T07:47:40;95047.86;;;14.88;43.85
61814;BME280;57055;-35.296;149.168;2023-04-01T07:50:19;95050.53;;;14.81;44.51
61814;BME280;57055;-35.296;149.168;2023-04-01T07:52:58;95053.96;;;14.68;45.11
61814;BME280;57055;-35.296;149.168;2023-04-01T07:55:33;95056.99;;;14.77;45.22
61814;BME280;57055;-35.296;149.168;2023-04-01T07:58:10;95060.67;;;14.51;45.61
61814;BME280;57055;-35.296;149.168;2023-04-01T08:00:50;95062.96;;;14.53;45.56
61814;BME280;57055;-35.296;149.168;2023-04-01T08:03:38;95064.55;;;14.55;46.10
61814;BME280;57055;-35.296;149.168;2023-04-01T08:06:17;95069.16;;;14.46;46.01
61814;BME280;57055;-35.296;149.168;2023-04-01T08:08:56;95071.53;;;14.44;46.14
61814;BME280;57055;-35.296;149.168;2023-04-01T08:11:41;95074.51;;;14.43;45.28
61814;BME280;57055;-35.296;149.168;2023-04-01T08:14:19;95076.97;;;14.43;45.07
61814;BME280;57055;-35.296;149.168;2023-04-01T08:16:57;95082.30;;;13.96;45.16
61814;BME280;57055;-35.296;149.168;2023-04-01T08:19:43;95087.06;;;14.38;45.44
61814;BME280;57055;-35.296;149.168;2023-04-01T08:22:20;95082.28;;;14.64;45.78
61814;BME280;57055;-35.296;149.168;2023-04-01T08:25:01;95089.15;;;14.42;45.86
61814;BME280;57055;-35.296;149.168;2023-04-01T08:27:36;95093.11;;;14.34;46.44
61814;BME280;57055;-35.296;149.168;2023-04-01T08:30:18;95098.29;;;14.35;46.88
61814;BME280;57055;-35.296;149.168;2023-04-01T08:32:52;95106.11;;;14.33;47.57
61814;BME280;57055;-35.296;149.168;2023-04-01T08:35:28;95112.81;;;14.22;48.53
61814;BME280;57055;-35.296;149.168;2023-04-01T08:38:04;95118.31;;;14.18;49.23
61814;BME280;57055;-35.296;149.168;2023-04-01T08:41:56;95123.21;;;14.11;49.63
61814;BME280;57055;-35.296;149.168;2023-04-01T08:45:03;95137.59;;;14.41;49.80
61814;BME280;57055;-35.296;149.168;2023-04-01T08:47:51;95139.29;;;14.36;49.84
61814;BME280;57055;-35.296;149.168;2023-04-01T08:50:46;95141.42;;;13.93;50.10
61814;BME280;57055;-35.296;149.168;2023-04-01T08:53:29;95146.51;;;13.97;49.85
61814;BME280;57055;-35.296;149.168;2023-04-01T08:56:12;95147.97;;;14.11;49.87
61814;BME280;57055;-35.296;149.168;2023-04-01T08:59:25;95151.41;;;13.69;50.37
61814;BME280;57055;-35.296;149.168;2023-04-01T09:02:18;95150.60;;;13.78;50.34
61814;BME280;57055;-35.296;149.168;2023-04-01T09:05:08;95159.12;;;13.77;50.32
61814;BME280;57055;-35.296;149.168;2023-04-01T09:07:53;95168.29;;;13.73;50.47
61814;BME280;57055;-35.296;149.168;2023-04-01T09:11:39;95175.65;;;13.54;50.39
61814;BME280;57055;-35.296;149.168;2023-04-01T09:14:30;95188.07;;;13.57;50.82
61814;BME280;57055;-35.296;149.168;2023-04-01T09:19:21;95191.68;;;13.82;51.06
61814;BME280;57055;-35.296;149.168;2023-04-01T09:22:10;95197.95;;;13.35;51.20
61814;BME280;57055;-35.296;149.168;2023-04-01T09:24:54;95203.15;;;13.25;51.44
61814;BME280;57055;-35.296;149.168;2023-04-01T09:27:32;95210.92;;;13.24;51.44
61814;BME280;57055;-35.296;149.168;2023-04-01T09:30:45;95218.44;;;13.17;51.79
61814;BME280;57055;-35.296;149.168;2023-04-01T09:33:50;95226.33;;;13.16;51.73
61814;BME280;57055;-35.296;149.168;2023-04-01T09:36:43;95235.11;;;13.15;51.72
61814;BME280;57055;-35.296;149.168;2023-04-01T09:39:27;95236.84;;;12.94;51.80
61814;BME280;57055;-35.296;149.168;2023-04-01T09:42:41;95241.41;;;13.10;51.94
61814;BME280;57055;-35.296;149.168;2023-04-01T09:45:23;95245.15;;;13.02;52.24
61814;BME280;57055;-35.296;149.168;2023-04-01T09:48:08;95248.60;;;12.95;52.14
61814;BME280;57055;-35.296;149.168;2023-04-01T09:50:47;95252.68;;;12.95;52.28
61814;BME280;57055;-35.296;149.168;2023-04-01T09:53:30;95256.31;;;12.94;52.39
61814;BME280;57055;-35.296;149.168;2023-04-01T09:56:43;95257.75;;;13.20;52.39
61814;BME280;57055;-35.296;149.168;2023-04-01T10:01:43;95265.69;;;13.19;53.22
61814;BME280;57055;-35.296;149.168;2023-04-01T10:06:45;95270.73;;;13.21;53.95
61814;BME280;57055;-35.296;149.168;2023-04-01T10:10:31;95277.26;;;12.82;53.98
61814;BME280;57055;-35.296;149.168;2023-04-01T10:13:26;95278.74;;;12.96;54.04
61814;BME280;57055;-35.296;149.168;2023-04-01T10:16:45;95283.43;;;12.63;54.20
61814;BME280;57055;-35.296;149.168;2023-04-01T10:19:50;95291.52;;;12.80;54.30
61814;BME280;57055;-35.296;149.168;2023-04-01T10:22:41;95293.07;;;12.46;54.59
61814;BME280;57055;-35.296;149.168;2023-04-01T10:26:29;95295.04;;;12.63;54.95
61814;BME280;57055;-35.296;149.168;2023-04-01T10:29:38;95297.04;;;12.58;55.20
61814;BME280;57055;-35.296;149.168;2023-04-01T10:32:40;95298.28;;;12.57;54.82
61814;BME280;57055;-35.296;149.168;2023-04-01T10:36:27;95299.60;;;12.39;54.71
61814;BME280;57055;-35.296;149.168;2023-04-01T10:40:13;95298.91;;;12.24;54.43
61814;BME280;57055;-35.296;149.168;2023-04-01T10:43:38;95304.50;;;12.53;54.46
61814;BME280;57055;-35.296;149.168;2023-04-01T10:46:45;95304.03;;;12.48;54.41
61814;BME280;57055;-35.296;149.168;2023-04-01T10:49:39;95301.29;;;12.39;54.73
61814;BME280;57055;-35.296;149.168;2023-04-01T10:52:31;95303.82;;;12.24;54.92
61814;BME280;57055;-35.296;149.168;2023-04-01T10:55:28;95306.59;;;12.18;55.12
61814;BME280;57055;-35.296;149.168;2023-04-01T10:58:59;95306.19;;;12.23;54.72
61814;BME280;57055;-35.296;149.168;2023-04-01T11:02:59;95304.32;;;12.16;54.80
61814;BME280;57055;-35.296;149.168;2023-04-01T11:07:16;95314.20;;;12.42;54.57
61814;BME280;57055;-35.296;149.168;2023-04-01T11:10:44;95318.43;;;12.18;54.77
61814;BME280;57055;-35.296;149.168;2023-04-01T11:14:38;95323.10;;;11.87;55.06
61814;BME280;57055;-35.296;149.168;2023-04-01T11:17:54;95321.93;;;12.00;55.12
61814;BME280;57055;-35.296;149.168;2023-04-01T11:20:47;95332.78;;;11.90;55.33
61814;BME280;57055;-35.296;149.168;2023-04-01T11:23:34;95338.84;;;11.96;55.61
61814;BME280;57055;-35.296;149.168;2023-04-01T11:26:18;95340.00;;;11.74;55.76
61814;BME280;57055;-35.296;149.168;2023-04-01T11:29:25;95338.65;;;11.72;55.56
61814;BME280;57055;-35.296;149.168;2023-04-01T11:32:08;95339.67;;;11.92;55.66
61814;BME280;57055;-35.296;149.168;2023-04-01T11:34:57;95344.85;;;11.92;55.27
61814;BME280;57055;-35.296;149.168;2023-04-01T11:37:38;95350.41;;;11.68;56.21
61814;BME280;57055;-35.296;149.168;2023-04-01T11:40:19;95351.53;;;11.65;56.25
61814;BME280;57055;-35.296;149.168;2023-04-01T11:42:53;95348.30;;;11.44;56.08
61814;BME280;57055;-35.296;149.168;2023-04-01T11:45:35;95345.04;;;11.55;56.32
61814;BME280;57055;-35.296;149.168;2023-04-01T11:48:32;95346.80;;;11.59;56.14
61814;BME280;57055;-35.296;149.168;2023-04-01T11:51:32;95348.89;;;11.39;56.03
61814;BME280;57055;-35.296;149.168;2023-04-01T11:54:18;95354.86;;;11.88;56.05
61814;BME280;57055;-35.296;149.168;2023-04-01T11:57:04;95353.80;;;11.39;56.07
61814;BME280;57055;-35.296;149.168;2023-04-01T11:59:52;95354.96;;;11.38;56.05
61814;BME280;57055;-35.296;149.168;2023-04-01T12:02:31;95353.65;;;11.45;56.58
61814;BME280;57055;-35.296;149.168;2023-04-01T12:05:26;95354.43;;;11.30;56.89
61814;BME280;57055;-35.296;149.168;2023-04-01T12:08:11;95357.14;;;11.50;56.93
61814;BME280;57055;-35.296;149.168;2023-04-01T12:10:50;95358.24;;;11.22;56.93
61814;BME280;57055;-35.296;149.168;2023-04-01T12:13:32;95364.83;;;11.16;57.19
61814;BME280;57055;-35.296;149.168;2023-04-01T12:16:20;95363.95;;;11.26;56.82
61814;BME280;57055;-35.296;149.168;2023-04-01T12:18:54;95361.81;;;11.10;56.67
61814;BME280;57055;-35.296;149.168;2023-04-01T12:21:28;95366.09;;;11.54;56.97
61814;BME280;57055;-35.296;149.168;2023-04-01T12:24:46;95367.31;;;11.38;57.46
61814;BME280;57055;-35.296;149.168;2023-04-01T12:27:31;95368.62;;;10.99;57.63
61814;BME280;57055;-35.296;149.168;2023-04-01T12:30:32;95368.59;;;11.23;58.09
61814;BME280;57055;-35.296;149.168;2023-04-01T12:33:25;95367.26;;;11.29;57.41
61814;BME280;57055;-35.296;149.168;2023-04-01T12:36:07;95364.79;;;10.91;57.69
61814;BME280;57055;-35.296;149.168;2023-04-01T12:38:44;95361.10;;;11.15;57.72
61814;BME280;57055;-35.296;149.168;2023-04-01T12:41:23;95366.67;;;11.16;57.74
61814;BME280;57055;-35.296;149.168;2023-04-01T12:44:19;95365.67;;;10.76;58.10
61814;BME280;57055;-35.296;149.168;2023-04-01T12:47:09;95361.91;;;11.04;58.12
61814;BME280;57055;-35.296;149.168;2023-04-01T12:49:56;95363.09;;;11.09;57.74
61814;BME280;57055;-35.296;149.168;2023-04-01T12:52:39;95368.55;;;11.10;57.29
61814;BME280;57055;-35.296;149.168;2023-04-01T12:55:35;95367.05;;;11.07;56.96
61814;BME280;57055;-35.296;149.168;2023-04-01T12:58:32;95367.12;;;11.02;57.29
61814;BME280;57055;-35.296;149.168;2023-04-01T13:02:02;95363.84;;;10.90;57.68
61814;BME280;57055;-35.296;149.168;2023-04-01T13:04:57;95362.91;;;10.75;57.85
61814;BME280;57055;-35.296;149.168;2023-04-01T13:07:57;95359.98;;;10.59;58.17
61814;BME280;57055;-35.296;149.168;2023-04-01T13:10:38;95359.04;;;10.66;57.91
61814;BME280;57055;-35.296;149.168;2023-04-01T13:13:31;95356.67;;;10.63;57.70
61814;BME280;57055;-35.296;149.168;2023-04-01T13:16:09;95358.97;;;10.67;57.49
61814;BME280;57055;-35.296;149.168;2023-04-01T13:18:50;95363.36;;;10.75;58.33
61814;BME280;57055;-35.296;149.168;2023-04-01T13:21:28;95365.78;;;10.55;57.77
61814;BME280;57055;-35.296;149.168;2023-04-01T13:24:06;95365.18;;;10.57;57.22
61814;BME280;57055;-35.296;149.168;2023-04-01T13:26:44;95364.82;;;10.80;57.39
61814;BME280;57055;-35.296;149.168;2023-04-01T13:29:19;95366.42;;;10.55;57.36
61814;BME280;57055;-35.296;149.168;2023-04-01T13:32:03;95370.41;;;10.40;58.10
61814;BME280;57055;-35.296;149.168;2023-04-01T13:34:43;95371.67;;;10.75;58.20
61814;BME280;57055;-35.296;149.168;2023-04-01T13:37:22;95368.32;;;10.02;58.63
61814;BME280;57055;-35.296;149.168;2023-04-01T13:40:03;95371.84;;;10.30;58.15
61814;BME280;57055;-35.296;149.168;2023-04-01T13:42:37;95370.39;;;10.34;57.78
61814;BME280;57055;-35.296;149.168;2023-04-01T13:45:15;95369.99;;;10.40;57.60
61814;BME280;57055;-35.296;149.168;2023-04-01T13:48:47;95368.74;;;10.19;57.32
61814;BME280;57055;-35.296;149.168;2023-04-01T13:55:55;95366.23;;;10.52;58.56